createdAt,value
2022-08-10T00:00:56.620Z,1.63
2022-08-10T00:03:24.126Z,2.08
2022-08-10T00:05:54.732Z,2.45
2022-08-10T00:08:24.006Z,3.47
2022-08-10T00:10:51.913Z,2.30
2022-08-10T00:13:19.387Z,1.83
2022-08-10T00:15:53.933Z,3.33
2022-08-10T00:18:34.848Z,1.85
2022-08-10T00:21:03.855Z,2.50
2022-08-10T00:23:31.350Z,3.15
2022-08-10T00:25:58.837Z,2.05
2022-08-10T00:28:26.339Z,2.05
2022-08-10T00:30:54.022Z,1.70
2022-08-10T00:33:22.103Z,1.55
2022-08-10T00:35:51.192Z,1.75
2022-08-10T00:38:18.702Z,3.03
2022-08-10T00:40:46.288Z,2.28
2022-08-10T00:43:13.750Z,2.42
2022-08-10T00:45:41.272Z,4.65
2022-08-10T00:48:10.148Z,3.05
2022-08-10T00:50:37.780Z,2.25
2022-08-10T00:53:06.646Z,2.83
2022-08-10T00:55:34.274Z,2.78
2022-08-10T00:58:21.772Z,3.08
2022-08-10T01:00:49.272Z,3.20
2022-08-10T01:03:16.783Z,2.30
2022-08-10T01:06:10.650Z,4.03
2022-08-10T01:08:48.454Z,2.10
2022-08-10T01:12:39.043Z,2.50
2022-08-10T01:16:37.877Z,3.60
2022-08-10T01:19:09.998Z,2.47
2022-08-10T01:21:56.624Z,4.28
2022-08-10T01:24:38.345Z,2.95
2022-08-10T01:27:13.926Z,3.15
2022-08-10T01:29:57.304Z,2.60
2022-08-10T01:32:30.983Z,4.18
2022-08-10T01:35:04.268Z,2.80
2022-08-10T01:37:33.488Z,6.35
2022-08-10T01:40:03.360Z,3.30
2022-08-10T01:42:33.963Z,3.95
2022-08-10T01:45:05.166Z,4.10
2022-08-10T01:47:52.437Z,7.70
2022-08-10T01:50:23.353Z,3.72
2022-08-10T01:52:52.418Z,2.83
2022-08-10T01:55:21.052Z,3.08
2022-08-10T01:57:49.483Z,2.75
2022-08-10T02:00:18.832Z,2.88
2022-08-10T02:02:46.327Z,3.05
2022-08-10T02:05:15.844Z,3.17
2022-08-10T02:07:43.604Z,3.83
2022-08-10T02:10:13.049Z,4.43
2022-08-10T02:12:41.878Z,3.95
2022-08-10T02:15:11.450Z,5.45
2022-08-10T02:17:59.876Z,3.72
2022-08-10T02:20:56.523Z,4.82
2022-08-10T02:23:26.277Z,6.70
2022-08-10T02:25:55.474Z,5.95
2022-08-10T02:28:29.470Z,6.28
2022-08-10T02:31:00.030Z,7.15
2022-08-10T02:33:29.567Z,6.60
2022-08-10T02:35:57.440Z,8.90
2022-08-10T02:38:58.281Z,8.10
2022-08-10T02:45:13.076Z,6.55
2022-08-10T02:45:17.696Z,7.38
2022-08-10T02:46:56.673Z,7.30
2022-08-10T02:49:28.083Z,11.73
2022-08-10T02:52:08.232Z,9.15
2022-08-10T02:54:37.049Z,11.52
2022-08-10T02:57:07.142Z,10.15
2022-08-10T02:59:40.019Z,11.32
2022-08-10T03:02:09.435Z,11.88
2022-08-10T03:04:55.673Z,12.27
2022-08-10T03:07:43.495Z,14.40
2022-08-10T03:10:14.721Z,14.13
2022-08-10T03:12:43.404Z,16.48
2022-08-10T03:15:15.996Z,14.70
2022-08-10T03:17:56.853Z,14.23
2022-08-10T03:20:34.083Z,13.98
2022-08-10T03:23:07.198Z,15.75
2022-08-10T03:25:35.404Z,13.95
2022-08-10T03:28:03.131Z,17.05
2022-08-10T03:30:33.325Z,14.77
2022-08-10T03:33:02.150Z,16.50
2022-08-10T03:35:31.064Z,19.58
2022-08-10T03:37:59.681Z,18.15
2022-08-10T03:40:32.173Z,20.50
2022-08-10T03:43:14.491Z,19.70
2022-08-10T03:45:54.537Z,22.15
2022-08-10T03:48:24.265Z,19.73
2022-08-10T03:51:02.242Z,22.48
2022-08-10T03:54:06.087Z,23.08
2022-08-10T03:56:29.413Z,25.95
2022-08-10T03:58:58.925Z,22.77
2022-08-10T04:02:46.666Z,23.23
2022-08-10T04:04:20.621Z,22.83
2022-08-10T04:06:54.667Z,21.63
2022-08-10T04:09:22.540Z,26.23
2022-08-10T04:11:49.992Z,20.90
2022-08-10T04:14:38.038Z,24.08
2022-08-10T04:17:04.915Z,25.67
2022-08-10T04:19:37.554Z,26.48
2022-08-10T04:22:09.579Z,26.70
2022-08-10T04:24:38.930Z,24.58
2022-08-10T04:27:06.543Z,30.05
2022-08-10T04:29:34.295Z,25.65
2022-08-10T04:32:02.269Z,28.75
2022-08-10T04:34:31.730Z,27.80
2022-08-10T04:37:00.519Z,29.92
2022-08-10T04:39:31.298Z,29.15
2022-08-10T04:41:59.049Z,26.90
2022-08-10T04:44:26.518Z,28.55
2022-08-10T04:46:58.222Z,26.88
2022-08-10T04:49:53.854Z,25.40
2022-08-10T04:52:14.383Z,29.10
2022-08-10T04:54:43.193Z,29.23
2022-08-10T04:57:10.736Z,27.65
2022-08-10T04:59:38.448Z,28.40
2022-08-10T05:02:29.350Z,29.40
2022-08-10T05:04:53.651Z,27.27
2022-08-10T05:07:21.140Z,28.08
2022-08-10T05:10:02.867Z,28.23
2022-08-10T05:12:35.715Z,28.55
2022-08-10T05:15:05.557Z,27.73
2022-08-10T05:17:33.017Z,27.95
2022-08-10T05:20:03.454Z,28.92
2022-08-10T05:22:32.957Z,30.00
2022-08-10T05:25:01.786Z,26.70
2022-08-10T05:27:29.273Z,28.95
2022-08-10T05:30:01.254Z,26.63
2022-08-10T05:32:30.227Z,25.42
2022-08-10T05:34:57.714Z,25.35
2022-08-10T05:38:09.087Z,24.35
2022-08-10T05:40:14.657Z,22.23
2022-08-10T05:42:42.524Z,24.83
2022-08-10T05:45:16.763Z,22.33
2022-08-10T05:48:41.802Z,20.40
2022-08-10T05:50:32.024Z,22.02
2022-08-10T05:53:03.750Z,17.58
2022-08-10T05:55:48.496Z,18.23
2022-08-10T05:58:16.007Z,17.17
2022-08-10T06:00:49.811Z,16.00
2022-08-10T06:03:24.067Z,17.95
2022-08-10T06:05:54.638Z,15.90
2022-08-10T06:08:24.041Z,15.17
2022-08-10T06:12:28.064Z,14.90
2022-08-10T06:14:13.714Z,15.50
2022-08-10T06:16:45.100Z,14.07
2022-08-10T06:19:14.929Z,15.98
2022-08-10T06:22:00.317Z,13.15
2022-08-10T06:24:30.522Z,11.50
2022-08-10T06:27:00.147Z,13.00
2022-08-10T06:29:29.403Z,13.90
2022-08-10T06:31:57.312Z,11.05
2022-08-10T06:34:26.135Z,8.77
2022-08-10T06:36:54.724Z,11.88
2022-08-10T06:39:34.053Z,13.02
2022-08-10T06:42:16.492Z,8.55
2022-08-10T06:44:49.974Z,9.57
2022-08-10T06:47:22.947Z,8.77
2022-08-10T06:49:52.950Z,8.07
2022-08-10T06:52:20.579Z,12.23
2022-08-10T06:54:49.204Z,8.07
2022-08-10T06:57:18.972Z,8.90
2022-08-10T06:59:48.964Z,8.93
2022-08-10T07:02:19.347Z,11.50
2022-08-10T07:04:49.214Z,8.97
2022-08-10T07:07:17.939Z,8.02
2022-08-10T07:09:46.102Z,6.78
2022-08-10T07:12:15.014Z,5.97
2022-08-10T07:14:45.170Z,6.40
2022-08-10T07:17:15.869Z,6.85
2022-08-10T07:23:05.937Z,7.28
2022-08-10T07:25:08.046Z,7.03
2022-08-10T07:27:58.315Z,7.88
2022-08-10T07:30:25.287Z,8.90
2022-08-10T07:32:53.580Z,5.93
2022-08-10T07:35:22.410Z,6.60
2022-08-10T07:37:52.130Z,5.75
2022-08-10T07:40:21.270Z,5.88
2022-08-10T07:42:49.946Z,6.65
2022-08-10T07:45:17.521Z,7.35
2022-08-10T07:47:53.884Z,6.93
2022-08-10T07:50:23.178Z,4.43
2022-08-10T07:52:52.216Z,4.72
2022-08-10T07:56:03.629Z,4.13
2022-08-10T07:58:08.027Z,3.95
2022-08-10T08:00:36.093Z,4.20
2022-08-10T08:03:07.362Z,4.93
2022-08-10T08:05:57.576Z,6.78
2022-08-10T08:08:22.539Z,3.85
2022-08-10T08:10:50.101Z,3.42
2022-08-10T08:13:18.054Z,4.82
2022-08-10T08:16:20.344Z,6.43
2022-08-10T08:18:37.088Z,5.88
2022-08-10T08:24:01.837Z,6.13
2022-08-10T08:24:11.137Z,4.47
2022-08-10T08:26:42.295Z,3.92
2022-08-10T08:29:13.853Z,5.28
2022-08-10T08:32:01.147Z,3.17
2022-08-10T08:34:31.444Z,2.95
2022-08-10T08:37:00.120Z,3.17
2022-08-10T08:39:27.854Z,2.40
2022-08-10T08:42:01.348Z,3.55
2022-08-10T08:44:34.962Z,2.55
2022-08-10T08:48:03.678Z,3.72
2022-08-10T08:50:23.037Z,2.20
2022-08-10T08:52:54.535Z,5.45
2022-08-10T08:56:03.429Z,3.15
2022-08-10T08:58:23.195Z,4.88
2022-08-10T09:00:57.551Z,2.13
2022-08-10T09:03:39.911Z,4.57
2022-08-10T09:06:19.097Z,3.58
2022-08-10T09:09:04.576Z,4.60
2022-08-10T09:11:42.214Z,5.57
2022-08-10T09:14:12.437Z,2.10
2022-08-10T09:16:45.588Z,2.50
2022-08-10T09:19:19.622Z,2.88
2022-08-10T09:22:17.969Z,3.83
2022-08-10T09:24:50.789Z,6.18
2022-08-10T09:27:20.153Z,3.53
2022-08-10T09:29:53.169Z,3.97
2022-08-10T09:36:17.094Z,5.03
2022-08-10T09:36:26.170Z,3.55
2022-08-10T09:38:12.976Z,4.68
2022-08-10T09:40:57.778Z,2.65
2022-08-10T09:43:32.322Z,3.10
2022-08-10T09:46:02.136Z,2.78
2022-08-10T09:48:33.554Z,3.67
2022-08-10T09:54:09.413Z,3.72
2022-08-10T09:56:41.909Z,3.88
2022-08-10T09:59:29.110Z,3.78
2022-08-10T10:02:04.676Z,2.72
2022-08-10T10:04:40.047Z,5.13
2022-08-10T10:07:09.047Z,1.75
2022-08-10T10:09:43.811Z,5.03
2022-08-10T10:12:16.157Z,1.40
2022-08-10T10:15:09.685Z,2.97
2022-08-10T10:17:43.886Z,2.28
2022-08-10T10:20:15.955Z,3.50
2022-08-10T10:22:51.515Z,2.47
2022-08-10T10:25:24.244Z,2.45
2022-08-10T10:28:17.389Z,1.30
2022-08-10T10:30:49.018Z,2.38
2022-08-10T10:33:20.860Z,2.97
2022-08-10T10:35:50.061Z,3.13
2022-08-10T10:38:17.931Z,2.60
2022-08-10T10:40:50.521Z,1.55
2022-08-10T10:43:26.236Z,2.35
2022-08-10T10:45:57.700Z,1.73
2022-08-10T10:48:29.587Z,1.30
2022-08-10T10:51:01.636Z,3.45
2022-08-10T10:53:32.148Z,2.13
2022-08-10T10:56:14.948Z,1.40
2022-08-10T10:58:49.687Z,1.17
2022-08-10T11:01:26.733Z,2.58
2022-08-10T11:04:02.234Z,1.40
2022-08-10T11:06:40.530Z,1.50
2022-08-10T11:09:12.512Z,1.50
2022-08-10T11:12:03.028Z,1.67
2022-08-10T11:14:37.217Z,1.40
2022-08-10T11:17:12.151Z,2.90
2022-08-10T11:20:01.600Z,2.90
2022-08-10T11:22:36.422Z,3.40
2022-08-10T11:25:09.165Z,3.55
2022-08-10T11:27:43.983Z,2.25
2022-08-10T11:30:13.693Z,2.03
2022-08-10T11:32:47.160Z,1.35
2022-08-10T11:35:21.303Z,4.55
2022-08-10T11:38:32.668Z,2.53
2022-08-10T11:40:45.644Z,2.80
2022-08-10T11:43:19.059Z,3.53
2022-08-10T11:45:52.480Z,3.25
2022-08-10T11:48:53.149Z,1.80
2022-08-10T11:51:20.582Z,2.20
2022-08-10T11:53:50.286Z,1.35
2022-08-10T11:56:25.536Z,2.28
2022-08-10T11:59:17.091Z,3.40
2022-08-10T12:01:45.449Z,3.65
2022-08-10T12:04:13.185Z,1.00
2022-08-10T12:06:55.078Z,2.42
2022-08-10T12:10:11.563Z,3.90
2022-08-10T12:12:11.429Z,1.00
2022-08-10T12:14:44.432Z,1.17
2022-08-10T12:17:18.169Z,3.53
2022-08-10T12:19:59.106Z,2.00
2022-08-10T12:22:32.116Z,3.08
2022-08-10T12:25:02.047Z,4.05
2022-08-10T12:27:32.092Z,2.45
2022-08-10T12:30:03.376Z,1.52
2022-08-10T12:32:33.272Z,4.85
2022-08-10T12:35:02.368Z,2.20
2022-08-10T12:37:32.539Z,2.53
2022-08-10T12:40:33.518Z,1.98
2022-08-10T12:43:02.382Z,1.13
2022-08-10T12:45:44.496Z,1.05
2022-08-10T12:48:15.270Z,1.27
2022-08-10T12:50:43.785Z,2.80
2022-08-10T12:53:22.072Z,1.75
2022-08-10T12:55:50.740Z,1.13
2022-08-10T12:58:57.288Z,4.80
2022-08-10T13:01:17.424Z,1.45
2022-08-10T13:04:20.930Z,3.35
2022-08-10T13:06:36.232Z,1.33
2022-08-10T13:09:10.094Z,2.33
2022-08-10T13:12:35.042Z,1.65
2022-08-10T13:14:29.888Z,1.95
2022-08-10T13:16:59.629Z,1.73
2022-08-10T13:19:28.894Z,2.55
2022-08-10T13:22:17.216Z,3.13
2022-08-10T13:24:45.571Z,1.70
2022-08-10T13:27:25.650Z,1.13
2022-08-10T13:30:03.681Z,2.08
2022-08-10T13:32:34.122Z,2.03
2022-08-10T13:35:03.208Z,1.25
2022-08-10T13:37:32.355Z,1.60
2022-08-10T13:40:01.322Z,5.38
2022-08-10T13:42:41.251Z,2.38
2022-08-10T13:45:10.438Z,1.10
2022-08-10T13:47:48.921Z,2.58
2022-08-10T13:50:20.995Z,3.20
2022-08-10T13:53:01.982Z,2.95
2022-08-10T13:55:54.568Z,2.15
2022-08-10T13:58:18.358Z,2.20
2022-08-10T14:00:46.860Z,0.80
2022-08-10T14:03:16.971Z,1.73
2022-08-10T14:05:45.236Z,1.38
2022-08-10T14:08:14.547Z,2.08
2022-08-10T14:11:09.322Z,2.13
2022-08-10T14:13:31.373Z,2.88
2022-08-10T14:15:59.846Z,1.20
2022-08-10T14:18:28.916Z,1.63
2022-08-10T14:20:58.406Z,1.85
2022-08-10T14:23:25.890Z,2.03
2022-08-10T14:25:54.567Z,2.40
2022-08-10T14:28:23.054Z,1.67
2022-08-10T14:30:56.699Z,1.85
2022-08-10T14:33:24.750Z,2.95
2022-08-10T14:36:18.896Z,2.50
2022-08-10T14:38:44.614Z,2.40
2022-08-10T14:41:15.742Z,1.17
2022-08-10T14:44:05.587Z,1.67
2022-08-10T14:46:34.174Z,4.57
2022-08-10T14:49:25.798Z,2.47
2022-08-10T14:51:52.677Z,3.25
2022-08-10T14:54:29.058Z,1.77
2022-08-10T14:57:11.089Z,1.02
2022-08-10T15:00:22.912Z,3.40
2022-08-10T15:02:40.495Z,3.28
2022-08-10T15:05:16.759Z,1.88
2022-08-10T15:07:47.903Z,0.90
2022-08-10T15:10:28.044Z,1.35
2022-08-10T15:12:58.920Z,2.22
2022-08-10T15:17:57.765Z,4.72
2022-08-10T15:20:25.935Z,0.88
2022-08-10T15:22:56.003Z,5.45
2022-08-10T15:25:25.872Z,2.00
2022-08-10T15:27:56.185Z,1.10
2022-08-10T15:30:32.115Z,2.13
2022-08-10T15:33:21.718Z,1.48
2022-08-10T15:36:23.922Z,1.67
2022-08-10T15:38:57.927Z,2.33
2022-08-10T15:41:58.762Z,3.60
2022-08-10T15:44:23.706Z,2.97
2022-08-10T15:46:52.917Z,0.85
2022-08-10T15:49:25.586Z,1.88
2022-08-10T15:51:57.789Z,2.58
2022-08-10T15:54:33.669Z,2.42
2022-08-10T15:57:02.579Z,2.63
2022-08-10T15:59:32.593Z,1.67
2022-08-10T16:02:15.006Z,2.17
2022-08-10T16:04:48.970Z,1.83
2022-08-10T16:07:19.643Z,1.27
2022-08-10T16:10:26.619Z,1.23
2022-08-10T16:12:41.559Z,1.33
2022-08-10T16:15:11.854Z,1.52
2022-08-10T16:20:26.901Z,4.15
2022-08-10T16:22:56.504Z,2.17
2022-08-10T16:25:48.123Z,2.70
2022-08-10T16:28:23.370Z,2.10
2022-08-10T16:30:53.313Z,2.38
2022-08-10T16:33:27.605Z,0.80
2022-08-10T16:36:15.754Z,1.50
2022-08-10T16:38:44.074Z,1.63
2022-08-10T16:42:02.667Z,2.60
2022-08-10T16:44:01.737Z,1.20
2022-08-10T16:46:29.726Z,1.42
2022-08-10T16:48:59.155Z,3.78
2022-08-10T16:51:27.248Z,2.37
2022-08-10T16:53:55.002Z,1.95
2022-08-10T16:56:27.897Z,3.70
2022-08-10T16:58:56.113Z,0.90
2022-08-10T17:01:24.854Z,4.15
2022-08-10T17:04:06.209Z,2.05
2022-08-10T17:06:38.706Z,2.45
2022-08-10T17:09:15.534Z,2.72
2022-08-10T17:11:46.970Z,2.78
2022-08-10T17:14:14.533Z,2.17
2022-08-10T17:16:43.348Z,4.53
2022-08-10T17:19:13.065Z,1.52
2022-08-10T17:21:51.106Z,1.45
2022-08-10T17:24:20.943Z,1.75
2022-08-10T17:26:50.307Z,2.38
2022-08-10T17:29:57.344Z,1.65
2022-08-10T17:32:09.403Z,1.30
2022-08-10T17:34:38.505Z,1.95
2022-08-10T17:37:09.031Z,1.67
2022-08-10T17:39:42.972Z,2.80
2022-08-10T17:42:12.002Z,2.60
2022-08-10T17:44:40.726Z,1.13
2022-08-10T17:47:11.272Z,2.95
2022-08-10T17:49:39.563Z,3.33
2022-08-10T17:52:09.132Z,2.22
2022-08-10T17:54:39.224Z,2.10
2022-08-10T17:57:09.014Z,1.52
2022-08-10T17:59:41.346Z,1.52
2022-08-10T18:02:09.966Z,2.13
2022-08-10T18:04:41.522Z,2.33
2022-08-10T18:07:10.935Z,1.20
2022-08-10T18:09:39.960Z,2.97
2022-08-10T18:12:17.534Z,3.75
2022-08-10T18:14:49.080Z,1.10
2022-08-10T18:17:20.344Z,1.80
2022-08-10T18:19:51.739Z,1.98
2022-08-10T18:22:19.514Z,1.48
2022-08-10T18:24:48.285Z,4.65
2022-08-10T18:27:17.108Z,2.42
2022-08-10T18:29:45.965Z,1.98
2022-08-10T18:32:15.541Z,1.40
2022-08-10T18:34:44.705Z,3.33
2022-08-10T18:37:20.364Z,1.67
2022-08-10T18:39:49.736Z,2.35
2022-08-10T18:42:19.597Z,1.48
2022-08-10T18:44:50.889Z,3.20
2022-08-10T18:47:21.932Z,1.05
2022-08-10T18:49:56.908Z,1.67
2022-08-10T18:52:29.114Z,1.52
2022-08-10T18:55:03.304Z,1.30
2022-08-10T18:57:36.933Z,2.63
2022-08-10T19:00:10.257Z,5.38
2022-08-10T19:03:00.770Z,1.80
2022-08-10T19:05:34.870Z,2.47
2022-08-10T19:08:31.622Z,2.13
2022-08-10T19:11:07.298Z,5.65
2022-08-10T19:13:40.003Z,2.58
2022-08-10T19:16:19.255Z,2.63
2022-08-10T19:18:55.267Z,7.00
2022-08-10T19:21:28.501Z,2.88
2022-08-10T19:24:01.660Z,2.50
2022-08-10T19:26:44.077Z,2.83
2022-08-10T19:30:05.045Z,3.17
2022-08-10T19:32:18.303Z,2.63
2022-08-10T19:34:53.240Z,3.35
2022-08-10T19:37:32.455Z,1.70
2022-08-10T19:40:11.110Z,2.42
2022-08-10T19:42:47.631Z,1.63
2022-08-10T19:46:00.581Z,2.03
2022-08-10T19:48:14.905Z,2.20
2022-08-10T19:50:48.255Z,1.50
2022-08-10T19:53:24.775Z,4.70
2022-08-10T19:56:04.937Z,1.75
2022-08-10T19:58:46.885Z,2.13
2022-08-10T20:01:15.123Z,8.82
2022-08-10T20:03:46.889Z,2.60
2022-08-10T20:06:20.811Z,1.83
2022-08-10T20:08:51.567Z,2.75
2022-08-10T20:11:46.442Z,4.43
2022-08-10T20:14:12.633Z,4.43
2022-08-10T20:16:51.008Z,5.60
2022-08-10T20:19:28.080Z,2.30
2022-08-10T20:22:19.302Z,2.42
2022-08-10T20:24:59.280Z,6.68
2022-08-10T20:28:06.732Z,3.83
2022-08-10T20:30:20.357Z,7.25
2022-08-10T20:32:57.611Z,6.03
2022-08-10T20:35:26.529Z,3.75
2022-08-10T20:38:04.099Z,3.80
2022-08-10T20:40:36.018Z,4.25
2022-08-10T20:43:10.196Z,2.72
2022-08-10T20:46:05.047Z,3.45
2022-08-10T20:48:30.796Z,2.78
2022-08-10T20:50:59.656Z,3.77
2022-08-10T20:53:29.441Z,6.03
2022-08-10T20:56:01.906Z,2.83
2022-08-10T20:58:33.862Z,5.65
2022-08-10T21:01:09.874Z,2.88
2022-08-10T21:03:51.541Z,5.72
2022-08-10T21:06:42.271Z,3.42
2022-08-10T21:09:25.443Z,2.30
2022-08-10T21:11:57.062Z,3.88
2022-08-10T21:14:33.661Z,5.30
2022-08-10T21:17:09.720Z,3.03
2022-08-10T21:19:53.606Z,5.63
2022-08-10T21:22:29.037Z,3.45
2022-08-10T21:24:59.847Z,3.05
2022-08-10T21:27:43.996Z,3.72
2022-08-10T21:30:15.860Z,5.57
2022-08-10T21:32:54.262Z,3.25
2022-08-10T21:35:36.712Z,3.25
2022-08-10T21:38:06.800Z,3.50
2022-08-10T21:40:40.567Z,2.22
2022-08-10T21:43:44.166Z,3.35
2022-08-10T21:46:33.524Z,3.47
2022-08-10T21:49:24.097Z,2.83
2022-08-10T21:52:12.419Z,3.15
2022-08-10T21:55:06.735Z,2.67
2022-08-10T21:58:05.318Z,5.78
2022-08-10T22:00:51.598Z,4.65
2022-08-10T22:03:39.326Z,5.13
2022-08-10T22:06:26.316Z,6.40
2022-08-10T22:09:15.196Z,3.45
2022-08-10T22:12:03.180Z,3.72
2022-08-10T22:14:53.013Z,4.82
2022-08-10T22:18:03.815Z,3.50
2022-08-10T22:20:44.804Z,3.17
2022-08-10T22:23:47.879Z,3.33
2022-08-10T22:26:40.751Z,4.25
2022-08-10T22:29:42.952Z,2.28
2022-08-10T22:32:32.814Z,2.28
2022-08-10T22:35:23.107Z,3.22
2022-08-10T22:38:13.987Z,4.03
2022-08-10T22:41:02.235Z,4.47
2022-08-10T22:43:49.739Z,2.05
2022-08-10T22:46:36.584Z,2.53
2022-08-10T22:49:04.676Z,4.45
2022-08-10T22:51:49.795Z,2.45
2022-08-10T22:54:39.232Z,8.90
2022-08-10T22:57:24.809Z,4.03
2022-08-10T22:59:52.421Z,4.65
2022-08-10T23:02:27.417Z,4.38
2022-08-10T23:04:59.126Z,6.38
2022-08-10T23:07:27.403Z,3.85
2022-08-10T23:09:58.158Z,3.00
2022-08-10T23:12:28.771Z,2.53
2022-08-10T23:15:16.349Z,4.80
2022-08-10T23:18:06.766Z,2.20
2022-08-10T23:20:36.385Z,3.95
2022-08-10T23:23:09.484Z,3.42
2022-08-10T23:25:56.210Z,2.78
2022-08-10T23:28:39.132Z,2.22
2022-08-10T23:31:13.401Z,4.25
2022-08-10T23:33:41.829Z,3.75
2022-08-10T23:36:33.323Z,7.75
2022-08-10T23:39:26.892Z,2.05
2022-08-10T23:41:52.993Z,4.75
2022-08-10T23:44:22.585Z,4.18
2022-08-10T23:46:50.423Z,2.88
2022-08-10T23:49:18.978Z,4.68
2022-08-10T23:51:55.719Z,2.63
2022-08-10T23:54:24.931Z,4.72
2022-08-10T23:56:54.989Z,5.32
2022-08-10T23:59:24.466Z,3.35
